sensor_id;sensor_type;location;lat;lon;timestamp;P1;durP1;ratioP1;P2;durP2;ratioP2
10303;SDS011;5197;48.152;8.590;2024-02-26T00:02:00;1.40;;;1.30;;
10303;SDS011;5197;48.152;8.590;2024-02-26T00:04:46;1.23;;;1.13;;
10303;SDS011;5197;48.152;8.590;2024-02-26T00:07:32;1.27;;;1.13;;
10303;SDS011;5197;48.152;8.590;2024-02-26T00:10:17;3.53;;;1.10;;
10303;SDS011;5197;48.152;8.590;2024-02-26T00:13:03;2.83;;;2.00;;
10303;SDS011;5197;48.152;8.590;2024-02-26T00:15:50;2.10;;;1.90;;
10303;SDS011;5197;48.152;8.590;2024-02-26T00:18:35;2.27;;;2.00;;
10303;SDS011;5197;48.152;8.590;2024-02-26T00:21:21;1.93;;;1.67;;
10303;SDS011;5197;48.152;8.590;2024-02-26T00:24:06;1.70;;;1.60;;
10303;SDS011;5197;48.152;8.590;2024-02-26T00:26:52;1.60;;;1.50;;
10303;SDS011;5197;48.152;8.590;2024-02-26T00:29:40;2.07;;;1.40;;
10303;SDS011;5197;48.152;8.590;2024-02-26T00:32:25;1.60;;;1.50;;
10303;SDS011;5197;48.152;8.590;2024-02-26T00:35:11;1.63;;;1.53;;
10303;SDS011;5197;48.152;8.590;2024-02-26T00:37:56;1.20;;;1.20;;
10303;SDS011;5197;48.152;8.590;2024-02-26T00:40:44;1.77;;;1.47;;
10303;SDS011;5197;48.152;8.590;2024-02-26T00:43:29;1.70;;;1.60;;
10303;SDS011;5197;48.152;8.590;2024-02-26T00:46:15;1.53;;;1.43;;
10303;SDS011;5197;48.152;8.590;2024-02-26T00:49:00;1.10;;;1.10;;
10303;SDS011;5197;48.152;8.590;2024-02-26T00:51:47;1.43;;;1.33;;
10303;SDS011;5197;48.152;8.590;2024-02-26T00:54:32;2.60;;;1.30;;
10303;SDS011;5197;48.152;8.590;2024-02-26T00:57:18;2.67;;;1.30;;
10303;SDS011;5197;48.152;8.590;2024-02-26T01:00:04;1.00;;;1.00;;
10303;SDS011;5197;48.152;8.590;2024-02-26T01:02:50;0.90;;;0.90;;
10303;SDS011;5197;48.152;8.590;2024-02-26T01:05:35;0.97;;;0.97;;
10303;SDS011;5197;48.152;8.590;2024-02-26T01:08:22;1.17;;;1.00;;
10303;SDS011;5197;48.152;8.590;2024-02-26T01:11:08;1.23;;;1.13;;
10303;SDS011;5197;48.152;8.590;2024-02-26T01:13:54;1.03;;;0.93;;
10303;SDS011;5197;48.152;8.590;2024-02-26T01:16:41;1.30;;;1.20;;
10303;SDS011;5197;48.152;8.590;2024-02-26T01:19:27;1.50;;;1.40;;
10303;SDS011;5197;48.152;8.590;2024-02-26T01:22:12;1.50;;;1.40;;
10303;SDS011;5197;48.152;8.590;2024-02-26T01:24:58;1.30;;;1.30;;
10303;SDS011;5197;48.152;8.590;2024-02-26T01:27:44;1.50;;;1.30;;
10303;SDS011;5197;48.152;8.590;2024-02-26T01:30:29;1.67;;;1.50;;
10303;SDS011;5197;48.152;8.590;2024-02-26T01:33:15;2.73;;;1.70;;
10303;SDS011;5197;48.152;8.590;2024-02-26T01:36:01;1.33;;;1.20;;
10303;SDS011;5197;48.152;8.590;2024-02-26T01:38:46;1.93;;;1.50;;
10303;SDS011;5197;48.152;8.590;2024-02-26T01:41:32;2.00;;;1.80;;
10303;SDS011;5197;48.152;8.590;2024-02-26T01:44:17;1.57;;;1.47;;
10303;SDS011;5197;48.152;8.590;2024-02-26T01:47:03;2.33;;;1.70;;
10303;SDS011;5197;48.152;8.590;2024-02-26T01:49:50;1.70;;;1.60;;
10303;SDS011;5197;48.152;8.590;2024-02-26T01:52:36;1.97;;;1.83;;
10303;SDS011;5197;48.152;8.590;2024-02-26T01:55:22;1.37;;;1.27;;
10303;SDS011;5197;48.152;8.590;2024-02-26T01:58:09;2.40;;;1.43;;
10303;SDS011;5197;48.152;8.590;2024-02-26T02:00:55;2.60;;;1.10;;
10303;SDS011;5197;48.152;8.590;2024-02-26T02:03:40;3.27;;;0.93;;
10303;SDS011;5197;48.152;8.590;2024-02-26T02:06:26;0.63;;;0.63;;
10303;SDS011;5197;48.152;8.590;2024-02-26T02:09:15;0.73;;;0.73;;
10303;SDS011;5197;48.152;8.590;2024-02-26T02:12:00;0.70;;;0.70;;
10303;SDS011;5197;48.152;8.590;2024-02-26T02:14:45;0.83;;;0.83;;
10303;SDS011;5197;48.152;8.590;2024-02-26T02:17:38;1.10;;;1.10;;
10303;SDS011;5197;48.152;8.590;2024-02-26T02:20:24;1.27;;;1.17;;
10303;SDS011;5197;48.152;8.590;2024-02-26T02:23:12;1.27;;;1.17;;
10303;SDS011;5197;48.152;8.590;2024-02-26T02:25:59;0.97;;;0.97;;
10303;SDS011;5197;48.152;8.590;2024-02-26T02:28:45;1.60;;;1.50;;
10303;SDS011;5197;48.152;8.590;2024-02-26T02:31:32;1.60;;;1.50;;
10303;SDS011;5197;48.152;8.590;2024-02-26T02:34:17;3.57;;;1.57;;
10303;SDS011;5197;48.152;8.590;2024-02-26T02:37:03;1.53;;;1.43;;
10303;SDS011;5197;48.152;8.590;2024-02-26T02:39:49;2.70;;;1.60;;
10303;SDS011;5197;48.152;8.590;2024-02-26T02:42:34;1.70;;;1.60;;
10303;SDS011;5197;48.152;8.590;2024-02-26T02:45:20;1.60;;;1.50;;
10303;SDS011;5197;48.152;8.590;2024-02-26T02:48:06;1.67;;;1.57;;
10303;SDS011;5197;48.152;8.590;2024-02-26T02:50:52;2.10;;;1.50;;
10303;SDS011;5197;48.152;8.590;2024-02-26T02:53:37;1.37;;;1.30;;
10303;SDS011;5197;48.152;8.590;2024-02-26T02:56:23;1.40;;;1.30;;
10303;SDS011;5197;48.152;8.590;2024-02-26T02:59:08;1.93;;;1.53;;
10303;SDS011;5197;48.152;8.590;2024-02-26T03:01:54;2.67;;;1.50;;
10303;SDS011;5197;48.152;8.590;2024-02-26T03:04:39;2.27;;;1.80;;
10303;SDS011;5197;48.152;8.590;2024-02-26T03:07:25;2.00;;;1.40;;
10303;SDS011;5197;48.152;8.590;2024-02-26T03:10:10;1.83;;;1.20;;
10303;SDS011;5197;48.152;8.590;2024-02-26T03:12:56;1.40;;;1.30;;
10303;SDS011;5197;48.152;8.590;2024-02-26T03:15:42;1.20;;;1.10;;
10303;SDS011;5197;48.152;8.590;2024-02-26T03:18:27;1.33;;;1.10;;
10303;SDS011;5197;48.152;8.590;2024-02-26T03:21:13;1.13;;;1.13;;
10303;SDS011;5197;48.152;8.590;2024-02-26T03:23:58;1.47;;;1.37;;
10303;SDS011;5197;48.152;8.590;2024-02-26T03:26:44;1.13;;;1.13;;
10303;SDS011;5197;48.152;8.590;2024-02-26T03:29:30;1.40;;;1.30;;
10303;SDS011;5197;48.152;8.590;2024-02-26T03:32:15;1.17;;;1.13;;
10303;SDS011;5197;48.152;8.590;2024-02-26T03:35:01;1.60;;;1.50;;
10303;SDS011;5197;48.152;8.590;2024-02-26T03:37:47;1.40;;;1.30;;
10303;SDS011;5197;48.152;8.590;2024-02-26T03:40:35;1.07;;;1.07;;
10303;SDS011;5197;48.152;8.590;2024-02-26T03:43:21;1.53;;;1.40;;
10303;SDS011;5197;48.152;8.590;2024-02-26T03:46:09;1.00;;;1.00;;
10303;SDS011;5197;48.152;8.590;2024-02-26T03:48:58;1.33;;;1.30;;
10303;SDS011;5197;48.152;8.590;2024-02-26T03:51:44;1.20;;;1.17;;
10303;SDS011;5197;48.152;8.590;2024-02-26T03:54:30;1.50;;;1.40;;
10303;SDS011;5197;48.152;8.590;2024-02-26T03:57:15;1.10;;;1.10;;
10303;SDS011;5197;48.152;8.590;2024-02-26T04:00:01;1.07;;;1.07;;
10303;SDS011;5197;48.152;8.590;2024-02-26T04:02:47;1.30;;;1.20;;
10303;SDS011;5197;48.152;8.590;2024-02-26T04:05:33;3.37;;;1.40;;
10303;SDS011;5197;48.152;8.590;2024-02-26T04:08:18;1.30;;;1.20;;
10303;SDS011;5197;48.152;8.590;2024-02-26T04:11:04;3.70;;;1.63;;
10303;SDS011;5197;48.152;8.590;2024-02-26T04:13:52;1.30;;;1.20;;
10303;SDS011;5197;48.152;8.590;2024-02-26T04:16:38;2.67;;;1.30;;
10303;SDS011;5197;48.152;8.590;2024-02-26T04:19:23;1.90;;;1.30;;
10303;SDS011;5197;48.152;8.590;2024-02-26T04:22:09;2.30;;;1.40;;
10303;SDS011;5197;48.152;8.590;2024-02-26T04:24:55;1.63;;;1.10;;
10303;SDS011;5197;48.152;8.590;2024-02-26T04:27:40;1.60;;;1.50;;
10303;SDS011;5197;48.152;8.590;2024-02-26T04:30:26;1.40;;;1.33;;
10303;SDS011;5197;48.152;8.590;2024-02-26T04:33:12;1.03;;;1.03;;
10303;SDS011;5197;48.152;8.590;2024-02-26T04:35:57;0.87;;;0.87;;
10303;SDS011;5197;48.152;8.590;2024-02-26T04:38:43;1.03;;;0.93;;
10303;SDS011;5197;48.152;8.590;2024-02-26T04:41:29;1.17;;;1.10;;
10303;SDS011;5197;48.152;8.590;2024-02-26T04:44:14;1.10;;;1.10;;
10303;SDS011;5197;48.152;8.590;2024-02-26T04:47:00;0.90;;;0.90;;
10303;SDS011;5197;48.152;8.590;2024-02-26T04:49:46;1.00;;;1.00;;
10303;SDS011;5197;48.152;8.590;2024-02-26T04:52:32;1.40;;;1.30;;
10303;SDS011;5197;48.152;8.590;2024-02-26T04:55:17;3.80;;;1.20;;
10303;SDS011;5197;48.152;8.590;2024-02-26T04:58:03;1.57;;;1.30;;
10303;SDS011;5197;48.152;8.590;2024-02-26T05:00:49;1.53;;;1.30;;
10303;SDS011;5197;48.152;8.590;2024-02-26T05:03:34;2.53;;;1.70;;
10303;SDS011;5197;48.152;8.590;2024-02-26T05:06:21;11.83;;;6.03;;
10303;SDS011;5197;48.152;8.590;2024-02-26T05:09:07;7.03;;;4.10;;
10303;SDS011;5197;48.152;8.590;2024-02-26T05:11:52;2.20;;;2.00;;
10303;SDS011;5197;48.152;8.590;2024-02-26T05:14:38;2.50;;;2.30;;
10303;SDS011;5197;48.152;8.590;2024-02-26T05:17:24;3.23;;;2.60;;
10303;SDS011;5197;48.152;8.590;2024-02-26T05:20:10;4.80;;;3.40;;
10303;SDS011;5197;48.152;8.590;2024-02-26T05:22:56;2.00;;;1.90;;
10303;SDS011;5197;48.152;8.590;2024-02-26T05:25:43;1.50;;;1.40;;
10303;SDS011;5197;48.152;8.590;2024-02-26T05:28:31;1.40;;;1.30;;
10303;SDS011;5197;48.152;8.590;2024-02-26T05:31:17;4.47;;;1.30;;
10303;SDS011;5197;48.152;8.590;2024-02-26T05:34:04;1.97;;;1.50;;
10303;SDS011;5197;48.152;8.590;2024-02-26T05:36:50;1.63;;;1.20;;
10303;SDS011;5197;48.152;8.590;2024-02-26T05:39:35;1.37;;;1.27;;
10303;SDS011;5197;48.152;8.590;2024-02-26T05:42:21;1.50;;;1.40;;
10303;SDS011;5197;48.152;8.590;2024-02-26T05:45:07;1.90;;;1.43;;
10303;SDS011;5197;48.152;8.590;2024-02-26T05:47:53;1.63;;;1.53;;
10303;SDS011;5197;48.152;8.590;2024-02-26T05:50:40;1.50;;;1.40;;
10303;SDS011;5197;48.152;8.590;2024-02-26T05:53:25;1.87;;;1.77;;
10303;SDS011;5197;48.152;8.590;2024-02-26T05:56:11;3.33;;;3.03;;
10303;SDS011;5197;48.152;8.590;2024-02-26T05:58:57;2.30;;;2.20;;
10303;SDS011;5197;48.152;8.590;2024-02-26T06:01:42;2.33;;;1.50;;
10303;SDS011;5197;48.152;8.590;2024-02-26T06:04:28;4.70;;;1.37;;
10303;SDS011;5197;48.152;8.590;2024-02-26T06:07:14;1.10;;;1.10;;
10303;SDS011;5197;48.152;8.590;2024-02-26T06:10:01;1.23;;;1.13;;
10303;SDS011;5197;48.152;8.590;2024-02-26T06:12:49;1.80;;;1.23;;
10303;SDS011;5197;48.152;8.590;2024-02-26T06:15:34;2.27;;;2.13;;
10303;SDS011;5197;48.152;8.590;2024-02-26T06:18:20;2.93;;;2.40;;
10303;SDS011;5197;48.152;8.590;2024-02-26T06:21:08;3.40;;;2.57;;
10303;SDS011;5197;48.152;8.590;2024-02-26T06:23:55;2.77;;;2.57;;
10303;SDS011;5197;48.152;8.590;2024-02-26T06:26:41;2.10;;;1.90;;
10303;SDS011;5197;48.152;8.590;2024-02-26T06:29:26;1.37;;;1.27;;
10303;SDS011;5197;48.152;8.590;2024-02-26T06:32:13;1.37;;;1.27;;
10303;SDS011;5197;48.152;8.590;2024-02-26T06:34:59;1.47;;;1.37;;
10303;SDS011;5197;48.152;8.590;2024-02-26T06:37:45;1.20;;;1.20;;
10303;SDS011;5197;48.152;8.590;2024-02-26T06:40:30;1.80;;;1.70;;
10303;SDS011;5197;48.152;8.590;2024-02-26T06:43:15;4.03;;;3.00;;
10303;SDS011;5197;48.152;8.590;2024-02-26T06:46:01;6.80;;;3.03;;
10303;SDS011;5197;48.152;8.590;2024-02-26T06:48:50;2.43;;;2.23;;
10303;SDS011;5197;48.152;8.590;2024-02-26T06:51:39;1.90;;;1.80;;
10303;SDS011;5197;48.152;8.590;2024-02-26T06:54:25;1.50;;;1.40;;
10303;SDS011;5197;48.152;8.590;2024-02-26T06:57:10;2.00;;;1.30;;
10303;SDS011;5197;48.152;8.590;2024-02-26T06:59:56;1.30;;;1.30;;
10303;SDS011;5197;48.152;8.590;2024-02-26T07:02:44;1.37;;;1.27;;
10303;SDS011;5197;48.152;8.590;2024-02-26T07:05:30;1.27;;;1.20;;
10303;SDS011;5197;48.152;8.590;2024-02-26T07:08:15;1.60;;;1.50;;
10303;SDS011;5197;48.152;8.590;2024-02-26T07:11:00;1.57;;;1.30;;
10303;SDS011;5197;48.152;8.590;2024-02-26T07:13:46;1.20;;;1.20;;
10303;SDS011;5197;48.152;8.590;2024-02-26T07:16:32;1.67;;;1.40;;
10303;SDS011;5197;48.152;8.590;2024-02-26T07:19:17;1.60;;;1.50;;
10303;SDS011;5197;48.152;8.590;2024-02-26T07:22:03;2.40;;;2.03;;
10303;SDS011;5197;48.152;8.590;2024-02-26T07:24:48;3.00;;;2.07;;
10303;SDS011;5197;48.152;8.590;2024-02-26T07:27:34;2.30;;;2.10;;
10303;SDS011;5197;48.152;8.590;2024-02-26T07:30:20;1.57;;;1.47;;
10303;SDS011;5197;48.152;8.590;2024-02-26T07:33:06;1.10;;;1.10;;
10303;SDS011;5197;48.152;8.590;2024-02-26T07:35:52;1.50;;;1.40;;
10303;SDS011;5197;48.152;8.590;2024-02-26T07:38:39;1.60;;;1.40;;
10303;SDS011;5197;48.152;8.590;2024-02-26T07:41:28;1.10;;;1.10;;
10303;SDS011;5197;48.152;8.590;2024-02-26T07:44:13;1.70;;;1.60;;
10303;SDS011;5197;48.152;8.590;2024-02-26T07:46:59;1.60;;;1.50;;
10303;SDS011;5197;48.152;8.590;2024-02-26T07:49:44;1.80;;;1.63;;
10303;SDS011;5197;48.152;8.590;2024-02-26T07:52:30;1.73;;;1.40;;
10303;SDS011;5197;48.152;8.590;2024-02-26T07:55:15;2.10;;;1.20;;
10303;SDS011;5197;48.152;8.590;2024-02-26T07:58:01;1.40;;;1.30;;
10303;SDS011;5197;48.152;8.590;2024-02-26T08:00:48;1.20;;;1.10;;
10303;SDS011;5197;48.152;8.590;2024-02-26T08:03:34;1.27;;;1.17;;
10303;SDS011;5197;48.152;8.590;2024-02-26T08:06:22;1.40;;;1.30;;
10303;SDS011;5197;48.152;8.590;2024-02-26T08:09:08;1.50;;;1.40;;
10303;SDS011;5197;48.152;8.590;2024-02-26T08:11:54;1.43;;;1.27;;
10303;SDS011;5197;48.152;8.590;2024-02-26T08:14:40;1.40;;;1.30;;
10303;SDS011;5197;48.152;8.590;2024-02-26T08:17:25;1.13;;;1.13;;
10303;SDS011;5197;48.152;8.590;2024-02-26T08:20:12;0.90;;;0.90;;
10303;SDS011;5197;48.152;8.590;2024-02-26T08:22:57;2.13;;;1.20;;
10303;SDS011;5197;48.152;8.590;2024-02-26T08:25:43;1.00;;;1.00;;
10303;SDS011;5197;48.152;8.590;2024-02-26T08:28:28;2.10;;;1.20;;
10303;SDS011;5197;48.152;8.590;2024-02-26T08:31:14;1.40;;;1.30;;
10303;SDS011;5197;48.152;8.590;2024-02-26T08:34:00;1.20;;;1.20;;
10303;SDS011;5197;48.152;8.590;2024-02-26T08:36:46;1.73;;;1.30;;
10303;SDS011;5197;48.152;8.590;2024-02-26T08:39:33;1.77;;;1.00;;
10303;SDS011;5197;48.152;8.590;2024-02-26T08:42:19;1.50;;;0.93;;
10303;SDS011;5197;48.152;8.590;2024-02-26T08:45:05;1.30;;;1.20;;
10303;SDS011;5197;48.152;8.590;2024-02-26T08:47:51;1.67;;;1.27;;
10303;SDS011;5197;48.152;8.590;2024-02-26T08:50:37;1.40;;;1.30;;
10303;SDS011;5197;48.152;8.590;2024-02-26T08:53:23;1.30;;;1.20;;
10303;SDS011;5197;48.152;8.590;2024-02-26T08:56:19;1.20;;;1.20;;
10303;SDS011;5197;48.152;8.590;2024-02-26T08:59:06;1.10;;;1.10;;
10303;SDS011;5197;48.152;8.590;2024-02-26T09:01:52;1.87;;;1.40;;
10303;SDS011;5197;48.152;8.590;2024-02-26T09:04:37;1.07;;;1.03;;
10303;SDS011;5197;48.152;8.590;2024-02-26T09:07:23;1.23;;;1.10;;
10303;SDS011;5197;48.152;8.590;2024-02-26T09:10:08;1.13;;;1.07;;
10303;SDS011;5197;48.152;8.590;2024-02-26T09:12:55;1.40;;;1.30;;
10303;SDS011;5197;48.152;8.590;2024-02-26T09:15:41;1.73;;;1.40;;
10303;SDS011;5197;48.152;8.590;2024-02-26T09:18:26;1.67;;;1.03;;
10303;SDS011;5197;48.152;8.590;2024-02-26T09:21:13;4.53;;;1.17;;
10303;SDS011;5197;48.152;8.590;2024-02-26T09:24:00;1.50;;;1.33;;
10303;SDS011;5197;48.152;8.590;2024-02-26T09:26:46;1.10;;;1.10;;
10303;SDS011;5197;48.152;8.590;2024-02-26T09:29:31;1.07;;;1.07;;
10303;SDS011;5197;48.152;8.590;2024-02-26T09:32:18;1.10;;;1.00;;
10303;SDS011;5197;48.152;8.590;2024-02-26T09:35:03;2.67;;;1.40;;
10303;SDS011;5197;48.152;8.590;2024-02-26T09:37:50;1.90;;;1.40;;
10303;SDS011;5197;48.152;8.590;2024-02-26T09:40:35;2.17;;;1.57;;
10303;SDS011;5197;48.152;8.590;2024-02-26T09:43:22;1.70;;;1.60;;
10303;SDS011;5197;48.152;8.590;2024-02-26T09:46:08;1.30;;;1.20;;
10303;SDS011;5197;48.152;8.590;2024-02-26T09:48:54;1.77;;;1.37;;
10303;SDS011;5197;48.152;8.590;2024-02-26T09:51:41;0.90;;;0.90;;
10303;SDS011;5197;48.152;8.590;2024-02-26T09:54:27;0.87;;;0.87;;
10303;SDS011;5197;48.152;8.590;2024-02-26T09:57:15;1.50;;;1.10;;
10303;SDS011;5197;48.152;8.590;2024-02-26T10:00:02;1.53;;;1.33;;
10303;SDS011;5197;48.152;8.590;2024-02-26T10:02:50;0.50;;;0.50;;
10303;SDS011;5197;48.152;8.590;2024-02-26T10:05:36;0.57;;;0.57;;
10303;SDS011;5197;48.152;8.590;2024-02-26T10:08:22;0.70;;;0.70;;
10303;SDS011;5197;48.152;8.590;2024-02-26T10:11:08;0.73;;;0.73;;
10303;SDS011;5197;48.152;8.590;2024-02-26T10:13:55;1.00;;;1.00;;
10303;SDS011;5197;48.152;8.590;2024-02-26T10:16:40;1.60;;;1.50;;
10303;SDS011;5197;48.152;8.590;2024-02-26T10:19:28;0.77;;;0.77;;
10303;SDS011;5197;48.152;8.590;2024-02-26T10:22:16;0.50;;;0.50;;
10303;SDS011;5197;48.152;8.590;2024-02-26T10:25:01;0.60;;;0.60;;
10303;SDS011;5197;48.152;8.590;2024-02-26T10:27:48;2.40;;;0.73;;
10303;SDS011;5197;48.152;8.590;2024-02-26T10:30:36;0.70;;;0.63;;
10303;SDS011;5197;48.152;8.590;2024-02-26T10:33:22;0.60;;;0.60;;
10303;SDS011;5197;48.152;8.590;2024-02-26T10:36:08;0.50;;;0.50;;
10303;SDS011;5197;48.152;8.590;2024-02-26T10:38:54;1.63;;;0.77;;
10303;SDS011;5197;48.152;8.590;2024-02-26T10:41:40;0.70;;;0.70;;
10303;SDS011;5197;48.152;8.590;2024-02-26T10:44:27;0.63;;;0.63;;
10303;SDS011;5197;48.152;8.590;2024-02-26T10:47:12;1.37;;;0.80;;
10303;SDS011;5197;48.152;8.590;2024-02-26T10:49:58;0.57;;;0.57;;
10303;SDS011;5197;48.152;8.590;2024-02-26T10:52:44;3.20;;;1.10;;
10303;SDS011;5197;48.152;8.590;2024-02-26T10:55:29;5.53;;;1.03;;
10303;SDS011;5197;48.152;8.590;2024-02-26T10:58:18;10.20;;;1.50;;
10303;SDS011;5197;48.152;8.590;2024-02-26T11:01:04;4.27;;;1.17;;
10303;SDS011;5197;48.152;8.590;2024-02-26T11:03:52;3.37;;;1.00;;
10303;SDS011;5197;48.152;8.590;2024-02-26T11:06:38;3.93;;;1.23;;
10303;SDS011;5197;48.152;8.590;2024-02-26T11:09:24;1.33;;;0.93;;
10303;SDS011;5197;48.152;8.590;2024-02-26T11:12:11;5.37;;;1.20;;
10303;SDS011;5197;48.152;8.590;2024-02-26T11:14:57;2.10;;;1.00;;
10303;SDS011;5197;48.152;8.590;2024-02-26T11:17:46;3.90;;;1.30;;
10303;SDS011;5197;48.152;8.590;2024-02-26T11:20:32;4.10;;;1.20;;
10303;SDS011;5197;48.152;8.590;2024-02-26T11:23:19;1.57;;;1.10;;
10303;SDS011;5197;48.152;8.590;2024-02-26T11:26:05;0.90;;;0.90;;
10303;SDS011;5197;48.152;8.590;2024-02-26T11:28:51;0.87;;;0.60;;
10303;SDS011;5197;48.152;8.590;2024-02-26T11:31:38;1.87;;;0.73;;
10303;SDS011;5197;48.152;8.590;2024-02-26T11:34:24;2.03;;;0.97;;
10303;SDS011;5197;48.152;8.590;2024-02-26T11:37:11;0.50;;;0.50;;
10303;SDS011;5197;48.152;8.590;2024-02-26T11:39:59;0.50;;;0.50;;
10303;SDS011;5197;48.152;8.590;2024-02-26T11:42:46;2.03;;;0.77;;
10303;SDS011;5197;48.152;8.590;2024-02-26T11:48:24;0.50;;;0.50;;
10303;SDS011;5197;48.152;8.590;2024-02-26T11:51:12;0.50;;;0.50;;
10303;SDS011;5197;48.152;8.590;2024-02-26T11:53:59;0.87;;;0.87;;
10303;SDS011;5197;48.152;8.590;2024-02-26T11:56:45;1.43;;;0.87;;
10303;SDS011;5197;48.152;8.590;2024-02-26T11:59:37;1.90;;;0.80;;
10303;SDS011;5197;48.152;8.590;2024-02-26T12:05:43;0.87;;;0.70;;
10303;SDS011;5197;48.152;8.590;2024-02-26T12:08:28;2.30;;;0.70;;
10303;SDS011;5197;48.152;8.590;2024-02-26T12:11:14;1.13;;;0.73;;
10303;SDS011;5197;48.152;8.590;2024-02-26T12:14:00;0.87;;;0.87;;
10303;SDS011;5197;48.152;8.590;2024-02-26T12:16:45;0.80;;;0.80;;
10303;SDS011;5197;48.152;8.590;2024-02-26T12:19:32;1.13;;;1.10;;
10303;SDS011;5197;48.152;8.590;2024-02-26T12:22:20;0.80;;;0.80;;
10303;SDS011;5197;48.152;8.590;2024-02-26T12:25:05;0.83;;;0.83;;
10303;SDS011;5197;48.152;8.590;2024-02-26T12:27:54;1.50;;;0.87;;
10303;SDS011;5197;48.152;8.590;2024-02-26T12:30:40;0.90;;;0.90;;
10303;SDS011;5197;48.152;8.590;2024-02-26T12:33:26;0.63;;;0.63;;
10303;SDS011;5197;48.152;8.590;2024-02-26T12:36:12;0.77;;;0.77;;
10303;SDS011;5197;48.152;8.590;2024-02-26T12:38:58;0.90;;;0.90;;
10303;SDS011;5197;48.152;8.590;2024-02-26T12:41:44;3.20;;;1.20;;
10303;SDS011;5197;48.152;8.590;2024-02-26T12:44:34;1.10;;;1.10;;
10303;SDS011;5197;48.152;8.590;2024-02-26T12:47:20;1.53;;;1.13;;
10303;SDS011;5197;48.152;8.590;2024-02-26T12:50:05;1.00;;;1.00;;
10303;SDS011;5197;48.152;8.590;2024-02-26T12:52:54;1.20;;;1.10;;
10303;SDS011;5197;48.152;8.590;2024-02-26T12:55:39;4.67;;;1.70;;
10303;SDS011;5197;48.152;8.590;2024-02-26T12:58:26;2.77;;;1.20;;
10303;SDS011;5197;48.152;8.590;2024-02-26T13:01:14;2.43;;;1.47;;
10303;SDS011;5197;48.152;8.590;2024-02-26T13:04:01;1.23;;;1.13;;
10303;SDS011;5197;48.152;8.590;2024-02-26T13:06:52;1.50;;;1.40;;
10303;SDS011;5197;48.152;8.590;2024-02-26T13:09:37;2.40;;;1.10;;
10303;SDS011;5197;48.152;8.590;2024-02-26T13:12:23;1.50;;;1.10;;
10303;SDS011;5197;48.152;8.590;2024-02-26T13:15:09;0.80;;;0.80;;
10303;SDS011;5197;48.152;8.590;2024-02-26T13:17:59;0.60;;;0.60;;
10303;SDS011;5197;48.152;8.590;2024-02-26T13:21:11;0.60;;;0.60;;
10303;SDS011;5197;48.152;8.590;2024-02-26T13:23:58;0.90;;;0.90;;
10303;SDS011;5197;48.152;8.590;2024-02-26T13:26:43;0.90;;;0.90;;
10303;SDS011;5197;48.152;8.590;2024-02-26T13:29:30;0.90;;;0.90;;
10303;SDS011;5197;48.152;8.590;2024-02-26T13:32:15;2.93;;;0.97;;
10303;SDS011;5197;48.152;8.590;2024-02-26T13:35:11;1.83;;;0.90;;
10303;SDS011;5197;48.152;8.590;2024-02-26T13:37:58;0.83;;;0.83;;
10303;SDS011;5197;48.152;8.590;2024-02-26T13:40:43;0.53;;;0.53;;
10303;SDS011;5197;48.152;8.590;2024-02-26T13:43:29;1.37;;;1.10;;
10303;SDS011;5197;48.152;8.590;2024-02-26T13:46:15;0.80;;;0.80;;
10303;SDS011;5197;48.152;8.590;2024-02-26T13:49:00;0.93;;;0.93;;
10303;SDS011;5197;48.152;8.590;2024-02-26T13:51:46;3.67;;;1.63;;
10303;SDS011;5197;48.152;8.590;2024-02-26T13:54:31;5.37;;;3.07;;
10303;SDS011;5197;48.152;8.590;2024-02-26T13:57:17;5.47;;;2.60;;
10303;SDS011;5197;48.152;8.590;2024-02-26T14:00:04;1.03;;;0.87;;
10303;SDS011;5197;48.152;8.590;2024-02-26T14:02:51;0.53;;;0.53;;
10303;SDS011;5197;48.152;8.590;2024-02-26T14:05:37;1.03;;;0.80;;
10303;SDS011;5197;48.152;8.590;2024-02-26T14:08:23;0.90;;;0.90;;
10303;SDS011;5197;48.152;8.590;2024-02-26T14:11:09;1.23;;;1.20;;
10303;SDS011;5197;48.152;8.590;2024-02-26T14:13:55;0.70;;;0.70;;
10303;SDS011;5197;48.152;8.590;2024-02-26T14:16:40;2.77;;;1.07;;
10303;SDS011;5197;48.152;8.590;2024-02-26T14:19:26;1.90;;;0.90;;
10303;SDS011;5197;48.152;8.590;2024-02-26T14:22:12;1.03;;;0.90;;
10303;SDS011;5197;48.152;8.590;2024-02-26T14:24:58;0.97;;;0.97;;
10303;SDS011;5197;48.152;8.590;2024-02-26T14:27:44;1.13;;;1.03;;
10303;SDS011;5197;48.152;8.590;2024-02-26T14:30:30;1.70;;;0.83;;
10303;SDS011;5197;48.152;8.590;2024-02-26T14:33:16;3.60;;;0.97;;
10303;SDS011;5197;48.152;8.590;2024-02-26T14:36:01;0.80;;;0.80;;
10303;SDS011;5197;48.152;8.590;2024-02-26T14:38:47;1.20;;;1.20;;
10303;SDS011;5197;48.152;8.590;2024-02-26T14:41:33;0.53;;;0.53;;
10303;SDS011;5197;48.152;8.590;2024-02-26T14:44:19;3.70;;;1.90;;
10303;SDS011;5197;48.152;8.590;2024-02-26T14:47:04;0.67;;;0.60;;
10303;SDS011;5197;48.152;8.590;2024-02-26T14:49:50;0.67;;;0.67;;
10303;SDS011;5197;48.152;8.590;2024-02-26T14:52:36;1.57;;;0.93;;
10303;SDS011;5197;48.152;8.590;2024-02-26T14:55:22;2.20;;;0.87;;
10303;SDS011;5197;48.152;8.590;2024-02-26T14:58:07;1.10;;;0.90;;
10303;SDS011;5197;48.152;8.590;2024-02-26T15:00:56;1.00;;;0.90;;
10303;SDS011;5197;48.152;8.590;2024-02-26T15:03:41;0.80;;;0.80;;
10303;SDS011;5197;48.152;8.590;2024-02-26T15:06:27;0.50;;;0.50;;
10303;SDS011;5197;48.152;8.590;2024-02-26T15:09:12;1.33;;;1.23;;
10303;SDS011;5197;48.152;8.590;2024-02-26T15:11:58;1.63;;;1.00;;
10303;SDS011;5197;48.152;8.590;2024-02-26T15:14:44;0.80;;;0.80;;
10303;SDS011;5197;48.152;8.590;2024-02-26T15:17:30;0.87;;;0.77;;
10303;SDS011;5197;48.152;8.590;2024-02-26T15:20:19;0.77;;;0.77;;
10303;SDS011;5197;48.152;8.590;2024-02-26T15:23:06;0.90;;;0.90;;
10303;SDS011;5197;48.152;8.590;2024-02-26T15:25:52;0.83;;;0.83;;
10303;SDS011;5197;48.152;8.590;2024-02-26T15:28:37;0.80;;;0.80;;
10303;SDS011;5197;48.152;8.590;2024-02-26T15:31:24;0.70;;;0.70;;
10303;SDS011;5197;48.152;8.590;2024-02-26T15:34:09;1.03;;;1.03;;
10303;SDS011;5197;48.152;8.590;2024-02-26T15:36:55;0.50;;;0.50;;
10303;SDS011;5197;48.152;8.590;2024-02-26T15:39:41;0.70;;;0.70;;
10303;SDS011;5197;48.152;8.590;2024-02-26T15:42:26;0.77;;;0.77;;
10303;SDS011;5197;48.152;8.590;2024-02-26T15:45:12;0.73;;;0.70;;
10303;SDS011;5197;48.152;8.590;2024-02-26T15:47:58;0.87;;;0.87;;
10303;SDS011;5197;48.152;8.590;2024-02-26T15:50:43;1.40;;;1.30;;
10303;SDS011;5197;48.152;8.590;2024-02-26T15:53:29;1.57;;;1.03;;
10303;SDS011;5197;48.152;8.590;2024-02-26T15:56:15;0.60;;;0.60;;
10303;SDS011;5197;48.152;8.590;2024-02-26T15:59:01;1.07;;;1.07;;
10303;SDS011;5197;48.152;8.590;2024-02-26T16:01:47;1.87;;;0.90;;
10303;SDS011;5197;48.152;8.590;2024-02-26T16:04:34;0.90;;;0.90;;
10303;SDS011;5197;48.152;8.590;2024-02-26T16:07:24;0.73;;;0.73;;
10303;SDS011;5197;48.152;8.590;2024-02-26T16:10:16;1.57;;;1.20;;
10303;SDS011;5197;48.152;8.590;2024-02-26T16:13:03;2.27;;;1.20;;
10303;SDS011;5197;48.152;8.590;2024-02-26T16:16:02;3.07;;;1.10;;
10303;SDS011;5197;48.152;8.590;2024-02-26T16:19:05;1.20;;;1.10;;
10303;SDS011;5197;48.152;8.590;2024-02-26T16:21:53;1.80;;;1.33;;
10303;SDS011;5197;48.152;8.590;2024-02-26T16:24:38;2.87;;;1.00;;
10303;SDS011;5197;48.152;8.590;2024-02-26T16:27:24;0.90;;;0.90;;
10303;SDS011;5197;48.152;8.590;2024-02-26T16:30:10;1.03;;;1.00;;
10303;SDS011;5197;48.152;8.590;2024-02-26T16:32:56;1.37;;;1.30;;
10303;SDS011;5197;48.152;8.590;2024-02-26T16:35:43;5.50;;;1.33;;
10303;SDS011;5197;48.152;8.590;2024-02-26T16:38:29;1.47;;;1.20;;
10303;SDS011;5197;48.152;8.590;2024-02-26T16:41:14;1.67;;;1.57;;
10303;SDS011;5197;48.152;8.590;2024-02-26T16:44:00;1.33;;;1.23;;
10303;SDS011;5197;48.152;8.590;2024-02-26T16:46:45;7.30;;;1.60;;
10303;SDS011;5197;48.152;8.590;2024-02-26T16:49:31;1.67;;;1.20;;
10303;SDS011;5197;48.152;8.590;2024-02-26T16:52:17;2.67;;;2.10;;
10303;SDS011;5197;48.152;8.590;2024-02-26T16:55:03;1.40;;;1.30;;
10303;SDS011;5197;48.152;8.590;2024-02-26T16:57:51;1.40;;;1.30;;
10303;SDS011;5197;48.152;8.590;2024-02-26T17:00:36;2.40;;;1.50;;
10303;SDS011;5197;48.152;8.590;2024-02-26T17:03:22;1.60;;;1.50;;